Pinero, Virginia
Current Conditions -  °F | °C
As of 7:55 AM on Monday 22 Dec 2014 (Local Time) from KW75 Reporting Station
Overcast Overcast  
Wind Chill: 34°   Ceiling: 6500
Heat Index: 37°   Visibility: 5mi
Dew Point: 34°   Wind: 5mph
Humidity: 87%   Direction: 40°NE
Pressure: 30.25"   Gusts: NA
Location:  37.4386°N, 76.5499°W
Report Text: KW75 221255Z AUTO 04004KT 5SM SCT045 BKN065 OVC080 03/01 A3025 RMK AO1 T00300010
Loading
Personal Weather Stations






























Interactive Weather Map New forecast layout! Learn more

10-Day Weather Forecast

Advertisements
Track Severe Weather on mobile